Minerva Ellie — SZQI — position and weather

sailwx.info

Track history (hours):
 
Tides and Currents Weather Stations Pressure Air Temp Water Temp Dewpoint Dewpoint Depression Visibility Wind Speed Wind Dir Waves Ship Positions

Minerva Ellie

Last reported at 2017-Nov-20 00:28 UTC. Time now 2017-Nov-20 20:56 UTC.
Position N 51°55' E 004°13'.

Length 244 m; draft 10.8 m.

Type: Ship. MMSI: 240435000.

Date/timePositionNaut miles runAvg speedWind from/ knotsBaromVisibWave heightAir tempDewpointWater temp
2017-Nov-20 00:28N 51°55' E 004°13'0 0.0
2017-Nov-19 23:58N 51°55' E 004°13'0 0.0
2017-Nov-19 23:25N 51°55' E 004°13'0 0.0
2017-Nov-19 22:58N 51°55' E 004°13'0 0.0
2017-Nov-19 22:28N 51°55' E 004°13'0 0.0
2017-Nov-19 21:58N 51°55' E 004°13'0 0.0
2017-Nov-19 21:28N 51°55' E 004°13'0 0.0
2017-Nov-19 20:58N 51°55' E 004°13'0 0.0
2017-Nov-19 20:28N 51°55' E 004°13'0 0.0
2017-Nov-19 19:58N 51°55' E 004°13'0 0.0
2017-Nov-19 19:28N 51°55' E 004°13'0 0.0
2017-Nov-19 18:55N 51°55' E 004°13'0 0.0
2017-Nov-19 18:28N 51°55' E 004°13'0 0.0
2017-Nov-19 17:58N 51°55' E 004°13'0 0.0
2017-Nov-19 17:28N 51°55' E 004°13'0 0.0
2017-Nov-19 16:58N 51°55' E 004°13'0 0.0
2017-Nov-19 16:28N 51°55' E 004°13'0 0.0
2017-Nov-19 15:58N 51°55' E 004°13'0 0.0
2017-Nov-19 15:25N 51°55' E 004°13'0 0.0
2017-Nov-19 14:58N 51°55' E 004°13'0 0.0
2017-Nov-19 14:28N 51°55' E 004°13'0 0.0
2017-Nov-19 13:58N 51°55' E 004°13'0 0.0
2017-Nov-19 13:28N 51°55' E 004°13'0 0.0
2017-Nov-19 12:58N 51°55' E 004°13'0 0.0
2017-Nov-19 12:28N 51°55' E 004°13'0 0.0
2017-Nov-19 11:58N 51°55' E 004°13'0 0.0
2017-Nov-19 11:28N 51°55' E 004°13'0 0.0
2017-Nov-19 10:58N 51°55' E 004°13'0 0.0
2017-Nov-19 10:28N 51°55' E 004°13'0 0.0
2017-Nov-19 09:58N 51°55' E 004°13'0 0.0
2017-Nov-19 09:25N 51°55' E 004°13'0 0.0
2017-Nov-19 08:55N 51°55' E 004°13'0 0.0
2017-Nov-19 08:28N 51°55' E 004°13'0 0.0
2017-Nov-19 07:55N 51°55' E 004°13'0 0.0
2017-Nov-19 07:25N 51°55' E 004°13'0 0.0
2017-Nov-19 06:58N 51°55' E 004°13'0 0.0
2017-Nov-19 06:28N 51°55' E 004°13'0 0.0
2017-Nov-19 05:58N 51°55' E 004°13'0 0.0
2017-Nov-19 05:28N 51°55' E 004°13'0 0.0
2017-Nov-19 04:58N 51°55' E 004°13'0 0.0
2017-Nov-19 04:25N 51°55' E 004°13'0 0.0
2017-Nov-19 04:00N 51°55' E 004°13'1 2.3
2017-Nov-19 03:31N 51°56' E 004°11'4 7.1
2017-Nov-19 03:01N 51°58' E 004°07'510.6
2017-Nov-19 02:31N 52°00' E 003°59'3 5.9
2017-Nov-19 02:00N 52°00' E 003°54'5 9.7
2017-Nov-19 01:30N 51°60' E 003°47'612.3
2017-Nov-19 01:00N 51°58' E 003°37'3 6.8
2017-Nov-19 00:30N 51°57' E 003°32'5 7.3
2017-Nov-18 23:46N 51°55' E 003°23'2 5.4
2017-Nov-18 23:25N 51°53' E 003°24'1 0.1
2017-Nov-18 09:18N 51°53' E 003°26'0 0.1
2017-Nov-18 06:16N 51°52' E 003°26'1 3.5
2017-Nov-18 05:56N 51°53' E 003°24'10 6.7
2017-Nov-18 04:30N 51°54' E 003°09'18 9.7
2017-Nov-18 02:39N 51°60' E 002°41'5 9.6
2017-Nov-18 02:10N 52°04' E 002°37'3 9.6
2017-Nov-18 01:50N 52°07' E 002°37'3 9.0
2017-Nov-18 01:28N 52°10' E 002°37'43711.5
2017-Nov-16 11:33N 57°51' E 010°34'112.7
2017-Nov-16 11:30N 57°51' E 010°36'611.9
2017-Nov-16 11:00N 57°49' E 010°46'611.7
2017-Nov-16 10:30N 57°44' E 010°53'611.4
2017-Nov-16 09:59N 57°40' E 011°00'714.0
2017-Nov-16 09:30N 57°36' E 011°10'714.1
2017-Nov-16 09:00N 57°31' E 011°19'714.0
2017-Nov-16 08:30N 57°25' E 011°27'714.2
2017-Nov-16 08:01N 57°19' E 011°32'714.3
2017-Nov-16 07:30N 57°12' E 011°36'714.1
2017-Nov-16 07:00N 57°05' E 011°41'914.2
2017-Nov-16 06:22N 56°57' E 011°47'514.2
2017-Nov-16 06:00N 56°52' E 011°50'713.6
2017-Nov-16 05:30N 56°46' E 011°55'714.0
2017-Nov-16 05:00N 56°40' E 011°49'714.3
2017-Nov-16 04:30N 56°34' E 011°42'714.2
2017-Nov-16 04:00N 56°28' E 011°36'1414.4
2017-Nov-16 03:03N 56°16' E 011°23'2714.4
2017-Nov-16 01:09N 55°53' E 010°55'2613.1
2017-Nov-15 23:12N 55°28' E 010°56'313.8
2017-Nov-15 23:00N 55°26' E 010°58'713.2
2017-Nov-15 22:30N 55°19' E 011°02'713.4
2017-Nov-15 21:59N 55°13' E 011°06'612.1
2017-Nov-15 21:30N 55°08' E 010°60'713.6
2017-Nov-15 21:00N 55°01' E 010°60'713.2
2017-Nov-15 20:31N 54°56' E 010°53'713.9
2017-Nov-15 20:01N 54°49' E 010°50'713.9
2017-Nov-15 19:31N 54°43' E 010°47'612.2
2017-Nov-15 19:00N 54°38' E 010°54'713.5
2017-Nov-15 18:30N 54°36' E 011°05'713.7
2017-Nov-15 18:00N 54°34' E 011°16'713.5
2017-Nov-15 17:30N 54°31' E 011°27'713.5
2017-Nov-15 17:00N 54°28' E 011°37'713.7
2017-Nov-15 16:30N 54°27' E 011°49'713.8
2017-Nov-15 16:00N 54°26' E 012°01'712.8
2017-Nov-15 15:29N 54°28' E 012°12'613.4
2017-Nov-15 15:00N 54°34' E 012°15'4 8.1
2017-Nov-15 14:30N 54°37' E 012°19'3 5.9
2017-Nov-15 14:00N 54°39' E 012°23'4 7.4
2017-Nov-15 13:30N 54°41' E 012°29'2 4.1
2017-Nov-15 13:00N 54°42' E 012°32'2 4.9
2017-Nov-15 12:30N 54°43' E 012°35'5 4.9
2017-Nov-15 11:32N 54°46' E 012°42'0 5.3
2017-Nov-15 11:30N 54°46' E 012°42'3 6.9
2017-Nov-15 11:00N 54°48' E 012°48'4 8.6
2017-Nov-15 10:30N 54°49' E 012°54'3310.7
2017-Nov-15 07:24N 55°01' E 013°48'1211.7
2017-Nov-15 06:23N 55°06' E 014°07'612.5
2017-Nov-15 05:52N 55°11' E 014°13'512.4
2017-Nov-15 05:30N 55°15' E 014°19'612.8
2017-Nov-15 05:00N 55°20' E 014°26'713.1
2017-Nov-15 04:30N 55°25' E 014°33'612.6
2017-Nov-15 04:00N 55°29' E 014°42'712.5
2017-Nov-15 03:26N 55°32' E 014°53'512.4
2017-Nov-15 03:00N 55°35' E 015°01'612.4
2017-Nov-15 02:30N 55°37' E 015°11'612.3
2017-Nov-15 02:00N 55°39' E 015°21'612.5
2017-Nov-15 01:30N 55°40' E 015°32'612.7
2017-Nov-15 01:00N 55°42' E 015°43'612.9
2017-Nov-15 00:30N 55°44' E 015°54'612.7
2017-Nov-15 00:00N 55°45' E 016°05'612.6
2017-Nov-14 23:30N 55°47' E 016°16'612.4
2017-Nov-14 23:00N 55°48' E 016°26'612.4
2017-Nov-14 22:30N 55°50' E 016°37'612.3
2017-Nov-14 22:00N 55°51' E 016°48'29912.3
2017-Nov-13 21:38N 59°35' E 022°58'56 2.9
2017-Nov-13 01:59N 59°35' E 024°49'0 0.0
2017-Nov-13 01:29N 59°35' E 024°49'0 0.0
2017-Nov-13 00:59N 59°35' E 024°49'0 0.2
2017-Nov-13 00:29N 59°35' E 024°49'0 0.1
2017-Nov-12 23:59N 59°35' E 024°49'0 0.0
2017-Nov-12 23:29N 59°35' E 024°49'0 0.0
2017-Nov-12 22:59N 59°35' E 024°49'0 0.0
2017-Nov-12 22:29N 59°35' E 024°49'0 0.0
2017-Nov-12 21:59N 59°35' E 024°49'0 0.0
2017-Nov-12 21:29N 59°35' E 024°49'0 0.0
2017-Nov-12 20:59N 59°35' E 024°49'0 0.0
2017-Nov-12 20:29N 59°35' E 024°49'0 0.0
2017-Nov-12 19:59N 59°35' E 024°49'0 0.0
2017-Nov-12 19:29N 59°35' E 024°49'0 0.0
2017-Nov-12 18:59N 59°35' E 024°49'0 0.0
2017-Nov-12 18:29N 59°35' E 024°49'0 0.0
2017-Nov-12 17:59N 59°35' E 024°49'0 0.0
2017-Nov-12 17:29N 59°35' E 024°49'0 0.0
2017-Nov-12 16:59N 59°35' E 024°49'0 0.0
2017-Nov-12 16:29N 59°35' E 024°49'0 0.0
2017-Nov-12 15:59N 59°35' E 024°49'0 0.0
2017-Nov-12 15:29N 59°35' E 024°49'0 0.0
2017-Nov-12 14:59N 59°35' E 024°49'0 0.0
2017-Nov-12 14:29N 59°35' E 024°49'0 0.0
2017-Nov-12 13:59N 59°35' E 024°49'0 0.1
2017-Nov-12 13:29N 59°35' E 024°49'0 0.1
2017-Nov-12 12:59N 59°35' E 024°49'0 0.0
2017-Nov-12 12:29N 59°35' E 024°49'0 0.0
2017-Nov-12 11:59N 59°35' E 024°49'0 0.0
2017-Nov-12 11:29N 59°35' E 024°49'0 0.0
2017-Nov-12 10:59N 59°35' E 024°49'0 0.0
2017-Nov-12 10:29N 59°35' E 024°49'0 0.0
2017-Nov-12 09:59N 59°35' E 024°49'0 0.1
2017-Nov-12 09:29N 59°35' E 024°49'0 0.1
2017-Nov-12 08:59N 59°35' E 024°49'0 0.0
2017-Nov-12 08:29N 59°35' E 024°49'0 0.0
2017-Nov-12 07:59N 59°35' E 024°49'0 0.0
2017-Nov-12 07:29N 59°35' E 024°49'0 0.0
2017-Nov-12 06:59N 59°35' E 024°49'0 0.1
2017-Nov-12 06:29N 59°35' E 024°49'0 0.0
2017-Nov-12 05:59N 59°35' E 024°49'0 0.0
2017-Nov-12 05:29N 59°35' E 024°49'0 0.0
2017-Nov-12 04:59N 59°35' E 024°49'0 0.0
2017-Nov-12 04:29N 59°35' E 024°49'0 0.0
2017-Nov-12 03:59N 59°35' E 024°49'0 0.0
2017-Nov-12 03:29N 59°35' E 024°49'0 0.0
2017-Nov-12 02:59N 59°35' E 024°49'0 0.3
2017-Nov-12 02:29N 59°35' E 024°49'0 0.1
2017-Nov-12 01:59N 59°35' E 024°49'0 0.0
2017-Nov-12 01:29N 59°35' E 024°49'0 0.1
2017-Nov-12 00:59N 59°35' E 024°49'0 0.1
2017-Nov-12 00:29N 59°35' E 024°49'0 0.0
2017-Nov-11 23:59N 59°35' E 024°49'0 0.0
2017-Nov-11 23:29N 59°35' E 024°49'0 0.0
2017-Nov-11 22:59N 59°35' E 024°49'0 0.0
2017-Nov-11 22:29N 59°35' E 024°49'0 0.0
2017-Nov-11 21:59N 59°35' E 024°49'0 0.0
2017-Nov-11 21:29N 59°35' E 024°49'0 0.0
2017-Nov-11 20:59N 59°35' E 024°49'0 0.0
2017-Nov-11 20:29N 59°35' E 024°49'0 0.0
2017-Nov-11 19:59N 59°35' E 024°49'0 0.0
2017-Nov-11 19:29N 59°35' E 024°49'0 0.1
2017-Nov-11 18:59N 59°35' E 024°49'0 0.1
2017-Nov-11 18:29N 59°35' E 024°49'0 0.1
2017-Nov-11 17:59N 59°35' E 024°49'0 0.0
2017-Nov-11 17:29N 59°35' E 024°49'0 0.0
2017-Nov-11 16:59N 59°35' E 024°49'0 0.0
2017-Nov-11 16:29N 59°35' E 024°49'0 0.0
2017-Nov-11 15:59N 59°35' E 024°49'0 0.0
2017-Nov-11 15:29N 59°35' E 024°49'0 0.0
2017-Nov-11 14:59N 59°35' E 024°49'0 0.1
2017-Nov-11 14:29N 59°35' E 024°49'0 0.1
2017-Nov-11 13:59N 59°35' E 024°49'0 0.0
2017-Nov-11 13:29N 59°35' E 024°49'0 0.1
2017-Nov-11 12:59N 59°35' E 024°49'0 0.1
2017-Nov-11 12:29N 59°35' E 024°49'0 0.0
2017-Nov-11 11:59N 59°35' E 024°49'0 0.1
2017-Nov-11 11:29N 59°35' E 024°49'0 0.0
2017-Nov-11 10:59N 59°35' E 024°49'0 0.0
2017-Nov-11 10:29N 59°35' E 024°49'0 0.0
2017-Nov-11 09:59N 59°35' E 024°49'0 0.0
2017-Nov-11 09:29N 59°35' E 024°49'0 0.1
2017-Nov-11 08:59N 59°35' E 024°49'0 0.1
2017-Nov-11 08:29N 59°35' E 024°49'0 0.0
2017-Nov-11 07:59N 59°35' E 024°49'0 0.0
2017-Nov-11 07:29N 59°35' E 024°49'0 0.0
2017-Nov-11 06:59N 59°35' E 024°49'0 0.0
2017-Nov-11 06:29N 59°35' E 024°49'0 0.0
2017-Nov-11 05:59N 59°35' E 024°49'0 0.0
2017-Nov-11 05:30N 59°35' E 024°49'0 0.0
2017-Nov-11 04:59N 59°35' E 024°49'0 0.1
2017-Nov-11 04:29N 59°35' E 024°49'0 0.0
2017-Nov-11 03:59N 59°35' E 024°49'0 0.0
2017-Nov-11 03:29N 59°35' E 024°49'0 0.0
2017-Nov-11 02:59N 59°35' E 024°49'0 0.0
2017-Nov-11 02:29N 59°35' E 024°49'0 0.0
2017-Nov-11 01:59N 59°35' E 024°49'0 0.0
2017-Nov-11 01:29N 59°35' E 024°49'0 0.0
2017-Nov-11 00:59N 59°35' E 024°49'0 0.0
2017-Nov-11 00:29N 59°35' E 024°49'0 0.0
2017-Nov-10 23:59N 59°35' E 024°49'0 0.0
2017-Nov-10 23:29N 59°35' E 024°49'0 0.0
2017-Nov-10 22:59N 59°35' E 024°49'0 0.0
2017-Nov-10 22:29N 59°35' E 024°49'0 0.0
2017-Nov-10 21:59N 59°35' E 024°49'0 0.0
2017-Nov-10 21:29N 59°35' E 024°49'0 0.0
2017-Nov-10 21:00N 59°35' E 024°49'0 0.0
2017-Nov-10 20:29N 59°35' E 024°49'0 0.0
2017-Nov-10 19:59N 59°35' E 024°49'0 0.0
2017-Nov-10 19:30N 59°35' E 024°49'0 0.0
2017-Nov-10 18:59N 59°35' E 024°49'0 0.0
2017-Nov-10 18:29N 59°35' E 024°49'0 0.0
2017-Nov-10 17:59N 59°35' E 024°49'0 0.0
2017-Nov-10 17:29N 59°35' E 024°49'0 0.0
2017-Nov-10 16:59N 59°35' E 024°49'0 0.0
2017-Nov-10 16:29N 59°35' E 024°49'0 0.0
2017-Nov-10 15:59N 59°35' E 024°49'0 0.0
2017-Nov-10 15:29N 59°35' E 024°49'0 0.0
2017-Nov-10 14:59N 59°35' E 024°49'0 0.0
2017-Nov-10 14:29N 59°35' E 024°49'0 0.1
2017-Nov-10 13:59N 59°35' E 024°49'0 0.0
2017-Nov-10 13:29N 59°35' E 024°49'0 0.0
2017-Nov-10 12:59N 59°35' E 024°49'0 0.0
2017-Nov-10 12:29N 59°35' E 024°49'0 0.0
2017-Nov-10 11:59N 59°35' E 024°49'0 0.1
2017-Nov-10 11:29N 59°35' E 024°49'0 0.1
2017-Nov-10 10:59N 59°35' E 024°49'0 0.0
2017-Nov-10 10:29N 59°35' E 024°49'0 0.1
2017-Nov-10 09:59N 59°35' E 024°49'0 0.0
2017-Nov-10 09:29N 59°35' E 024°49'0 0.0
2017-Nov-10 08:59N 59°35' E 024°49'0 0.0
2017-Nov-10 08:29N 59°35' E 024°49'0 0.0
2017-Nov-10 07:59N 59°35' E 024°49'0 0.0
2017-Nov-10 07:29N 59°35' E 024°49'0 0.0
2017-Nov-10 06:59N 59°35' E 024°49'0 0.0
2017-Nov-10 06:29N 59°35' E 024°49'0 0.0
2017-Nov-10 05:59N 59°35' E 024°49'0 0.0
2017-Nov-10 05:30N 59°35' E 024°49'0 0.0
2017-Nov-10 04:59N 59°35' E 024°49'0 0.0
2017-Nov-10 04:29N 59°35' E 024°49'0 0.0
2017-Nov-10 03:59N 59°35' E 024°49'0 0.0
2017-Nov-10 03:29N 59°35' E 024°49'0 0.1
2017-Nov-10 02:59N 59°35' E 024°49'0 0.0
2017-Nov-10 02:29N 59°35' E 024°49'0 0.0
2017-Nov-10 01:59N 59°35' E 024°49'0 0.0
2017-Nov-10 01:29N 59°35' E 024°49'0 0.0
2017-Nov-10 00:59N 59°35' E 024°49'0 0.0
2017-Nov-10 00:29N 59°35' E 024°49'  
Track history (hours):
 
Tides and Currents Weather Stations Pressure Air Temp Water Temp Dewpoint Dewpoint Depression Visibility Wind Speed Wind Dir Waves Ship Positions

Minerva Ellie

Last reported at 2017-Nov-20 00:28 UTC. Time now 2017-Nov-20 20:56 UTC.
Position N 51°55' E 004°13'.

Length 244 m; draft 10.8 m.

Type: Ship. MMSI: 240435000.

Date/timePositionNaut miles runAvg speedWind from/ knotsBaromVisibWave heightAir tempDewpointWater temp
2017-Nov-20 00:28N 51°55' E 004°13'0 0.0
2017-Nov-19 23:58N 51°55' E 004°13'0 0.0
2017-Nov-19 23:25N 51°55' E 004°13'0 0.0
2017-Nov-19 22:58N 51°55' E 004°13'0 0.0
2017-Nov-19 22:28N 51°55' E 004°13'0 0.0
2017-Nov-19 21:58N 51°55' E 004°13'0 0.0
2017-Nov-19 21:28N 51°55' E 004°13'0 0.0
2017-Nov-19 20:58N 51°55' E 004°13'0 0.0
2017-Nov-19 20:28N 51°55' E 004°13'0 0.0
2017-Nov-19 19:58N 51°55' E 004°13'0 0.0
2017-Nov-19 19:28N 51°55' E 004°13'0 0.0
2017-Nov-19 18:55N 51°55' E 004°13'0 0.0
2017-Nov-19 18:28N 51°55' E 004°13'0 0.0
2017-Nov-19 17:58N 51°55' E 004°13'0 0.0
2017-Nov-19 17:28N 51°55' E 004°13'0 0.0
2017-Nov-19 16:58N 51°55' E 004°13'0 0.0
2017-Nov-19 16:28N 51°55' E 004°13'0 0.0
2017-Nov-19 15:58N 51°55' E 004°13'0 0.0
2017-Nov-19 15:25N 51°55' E 004°13'0 0.0
2017-Nov-19 14:58N 51°55' E 004°13'0 0.0
2017-Nov-19 14:28N 51°55' E 004°13'0 0.0
2017-Nov-19 13:58N 51°55' E 004°13'0 0.0
2017-Nov-19 13:28N 51°55' E 004°13'0 0.0
2017-Nov-19 12:58N 51°55' E 004°13'0 0.0
2017-Nov-19 12:28N 51°55' E 004°13'0 0.0
2017-Nov-19 11:58N 51°55' E 004°13'0 0.0
2017-Nov-19 11:28N 51°55' E 004°13'0 0.0
2017-Nov-19 10:58N 51°55' E 004°13'0 0.0
2017-Nov-19 10:28N 51°55' E 004°13'0 0.0
2017-Nov-19 09:58N 51°55' E 004°13'0 0.0
2017-Nov-19 09:25N 51°55' E 004°13'0 0.0
2017-Nov-19 08:55N 51°55' E 004°13'0 0.0
2017-Nov-19 08:28N 51°55' E 004°13'0 0.0
2017-Nov-19 07:55N 51°55' E 004°13'0 0.0
2017-Nov-19 07:25N 51°55' E 004°13'0 0.0
2017-Nov-19 06:58N 51°55' E 004°13'0 0.0
2017-Nov-19 06:28N 51°55' E 004°13'0 0.0
2017-Nov-19 05:58N 51°55' E 004°13'0 0.0
2017-Nov-19 05:28N 51°55' E 004°13'0 0.0
2017-Nov-19 04:58N 51°55' E 004°13'0 0.0
2017-Nov-19 04:25N 51°55' E 004°13'0 0.0
2017-Nov-19 04:00N 51°55' E 004°13'1 2.3
2017-Nov-19 03:31N 51°56' E 004°11'4 7.1
2017-Nov-19 03:01N 51°58' E 004°07'510.6
2017-Nov-19 02:31N 52°00' E 003°59'3 5.9
2017-Nov-19 02:00N 52°00' E 003°54'5 9.7
2017-Nov-19 01:30N 51°60' E 003°47'612.3
2017-Nov-19 01:00N 51°58' E 003°37'3 6.8
2017-Nov-19 00:30N 51°57' E 003°32'5 7.3
2017-Nov-18 23:46N 51°55' E 003°23'2 5.4
2017-Nov-18 23:25N 51°53' E 003°24'1 0.1
2017-Nov-18 09:18N 51°53' E 003°26'0 0.1
2017-Nov-18 06:16N 51°52' E 003°26'1 3.5
2017-Nov-18 05:56N 51°53' E 003°24'10 6.7
2017-Nov-18 04:30N 51°54' E 003°09'18 9.7
2017-Nov-18 02:39N 51°60' E 002°41'5 9.6
2017-Nov-18 02:10N 52°04' E 002°37'3 9.6
2017-Nov-18 01:50N 52°07' E 002°37'3 9.0
2017-Nov-18 01:28N 52°10' E 002°37'43711.5
2017-Nov-16 11:33N 57°51' E 010°34'112.7
2017-Nov-16 11:30N 57°51' E 010°36'611.9
2017-Nov-16 11:00N 57°49' E 010°46'611.7
2017-Nov-16 10:30N 57°44' E 010°53'611.4
2017-Nov-16 09:59N 57°40' E 011°00'714.0
2017-Nov-16 09:30N 57°36' E 011°10'714.1
2017-Nov-16 09:00N 57°31' E 011°19'714.0
2017-Nov-16 08:30N 57°25' E 011°27'714.2
2017-Nov-16 08:01N 57°19' E 011°32'714.3
2017-Nov-16 07:30N 57°12' E 011°36'714.1
2017-Nov-16 07:00N 57°05' E 011°41'914.2
2017-Nov-16 06:22N 56°57' E 011°47'514.2
2017-Nov-16 06:00N 56°52' E 011°50'713.6
2017-Nov-16 05:30N 56°46' E 011°55'714.0
2017-Nov-16 05:00N 56°40' E 011°49'714.3
2017-Nov-16 04:30N 56°34' E 011°42'714.2
2017-Nov-16 04:00N 56°28' E 011°36'1414.4
2017-Nov-16 03:03N 56°16' E 011°23'2714.4
2017-Nov-16 01:09N 55°53' E 010°55'2613.1
2017-Nov-15 23:12N 55°28' E 010°56'313.8
2017-Nov-15 23:00N 55°26' E 010°58'713.2
2017-Nov-15 22:30N 55°19' E 011°02'713.4
2017-Nov-15 21:59N 55°13' E 011°06'612.1
2017-Nov-15 21:30N 55°08' E 010°60'713.6
2017-Nov-15 21:00N 55°01' E 010°60'713.2
2017-Nov-15 20:31N 54°56' E 010°53'713.9
2017-Nov-15 20:01N 54°49' E 010°50'713.9
2017-Nov-15 19:31N 54°43' E 010°47'612.2
2017-Nov-15 19:00N 54°38' E 010°54'713.5
2017-Nov-15 18:30N 54°36' E 011°05'713.7
2017-Nov-15 18:00N 54°34' E 011°16'713.5
2017-Nov-15 17:30N 54°31' E 011°27'713.5
2017-Nov-15 17:00N 54°28' E 011°37'713.7
2017-Nov-15 16:30N 54°27' E 011°49'713.8
2017-Nov-15 16:00N 54°26' E 012°01'712.8
2017-Nov-15 15:29N 54°28' E 012°12'613.4
2017-Nov-15 15:00N 54°34' E 012°15'4 8.1
2017-Nov-15 14:30N 54°37' E 012°19'3 5.9
2017-Nov-15 14:00N 54°39' E 012°23'4 7.4
2017-Nov-15 13:30N 54°41' E 012°29'2 4.1
2017-Nov-15 13:00N 54°42' E 012°32'2 4.9
2017-Nov-15 12:30N 54°43' E 012°35'5 4.9
2017-Nov-15 11:32N 54°46' E 012°42'0 5.3
2017-Nov-15 11:30N 54°46' E 012°42'3 6.9
2017-Nov-15 11:00N 54°48' E 012°48'4 8.6
2017-Nov-15 10:30N 54°49' E 012°54'3310.7
2017-Nov-15 07:24N 55°01' E 013°48'1211.7
2017-Nov-15 06:23N 55°06' E 014°07'612.5
2017-Nov-15 05:52N 55°11' E 014°13'512.4
2017-Nov-15 05:30N 55°15' E 014°19'612.8
2017-Nov-15 05:00N 55°20' E 014°26'713.1
2017-Nov-15 04:30N 55°25' E 014°33'612.6
2017-Nov-15 04:00N 55°29' E 014°42'712.5
2017-Nov-15 03:26N 55°32' E 014°53'512.4
2017-Nov-15 03:00N 55°35' E 015°01'612.4
2017-Nov-15 02:30N 55°37' E 015°11'612.3
2017-Nov-15 02:00N 55°39' E 015°21'612.5
2017-Nov-15 01:30N 55°40' E 015°32'612.7
2017-Nov-15 01:00N 55°42' E 015°43'612.9
2017-Nov-15 00:30N 55°44' E 015°54'612.7
2017-Nov-15 00:00N 55°45' E 016°05'612.6
2017-Nov-14 23:30N 55°47' E 016°16'612.4
2017-Nov-14 23:00N 55°48' E 016°26'612.4
2017-Nov-14 22:30N 55°50' E 016°37'612.3
2017-Nov-14 22:00N 55°51' E 016°48'29912.3
2017-Nov-13 21:38N 59°35' E 022°58'56 2.9
2017-Nov-13 01:59N 59°35' E 024°49'0 0.0
2017-Nov-13 01:29N 59°35' E 024°49'0 0.0
2017-Nov-13 00:59N 59°35' E 024°49'0 0.2
2017-Nov-13 00:29N 59°35' E 024°49'0 0.1
2017-Nov-12 23:59N 59°35' E 024°49'0 0.0
2017-Nov-12 23:29N 59°35' E 024°49'0 0.0
2017-Nov-12 22:59N 59°35' E 024°49'0 0.0
2017-Nov-12 22:29N 59°35' E 024°49'0 0.0
2017-Nov-12 21:59N 59°35' E 024°49'0 0.0
2017-Nov-12 21:29N 59°35' E 024°49'0 0.0
2017-Nov-12 20:59N 59°35' E 024°49'0 0.0
2017-Nov-12 20:29N 59°35' E 024°49'0 0.0
2017-Nov-12 19:59N 59°35' E 024°49'0 0.0
2017-Nov-12 19:29N 59°35' E 024°49'0 0.0
2017-Nov-12 18:59N 59°35' E 024°49'0 0.0
2017-Nov-12 18:29N 59°35' E 024°49'0 0.0
2017-Nov-12 17:59N 59°35' E 024°49'0 0.0
2017-Nov-12 17:29N 59°35' E 024°49'0 0.0
2017-Nov-12 16:59N 59°35' E 024°49'0 0.0
2017-Nov-12 16:29N 59°35' E 024°49'0 0.0
2017-Nov-12 15:59N 59°35' E 024°49'0 0.0
2017-Nov-12 15:29N 59°35' E 024°49'0 0.0
2017-Nov-12 14:59N 59°35' E 024°49'0 0.0
2017-Nov-12 14:29N 59°35' E 024°49'0 0.0
2017-Nov-12 13:59N 59°35' E 024°49'0 0.1
2017-Nov-12 13:29N 59°35' E 024°49'0 0.1
2017-Nov-12 12:59N 59°35' E 024°49'0 0.0
2017-Nov-12 12:29N 59°35' E 024°49'0 0.0
2017-Nov-12 11:59N 59°35' E 024°49'0 0.0
2017-Nov-12 11:29N 59°35' E 024°49'0 0.0
2017-Nov-12 10:59N 59°35' E 024°49'0 0.0
2017-Nov-12 10:29N 59°35' E 024°49'0 0.0
2017-Nov-12 09:59N 59°35' E 024°49'0 0.1
2017-Nov-12 09:29N 59°35' E 024°49'0 0.1
2017-Nov-12 08:59N 59°35' E 024°49'0 0.0
2017-Nov-12 08:29N 59°35' E 024°49'0 0.0
2017-Nov-12 07:59N 59°35' E 024°49'0 0.0
2017-Nov-12 07:29N 59°35' E 024°49'0 0.0
2017-Nov-12 06:59N 59°35' E 024°49'0 0.1
2017-Nov-12 06:29N 59°35' E 024°49'0 0.0
2017-Nov-12 05:59N 59°35' E 024°49'0 0.0
2017-Nov-12 05:29N 59°35' E 024°49'0 0.0
2017-Nov-12 04:59N 59°35' E 024°49'0 0.0
2017-Nov-12 04:29N 59°35' E 024°49'0 0.0
2017-Nov-12 03:59N 59°35' E 024°49'0 0.0
2017-Nov-12 03:29N 59°35' E 024°49'0 0.0
2017-Nov-12 02:59N 59°35' E 024°49'0 0.3
2017-Nov-12 02:29N 59°35' E 024°49'0 0.1
2017-Nov-12 01:59N 59°35' E 024°49'0 0.0
2017-Nov-12 01:29N 59°35' E 024°49'0 0.1
2017-Nov-12 00:59N 59°35' E 024°49'0 0.1
2017-Nov-12 00:29N 59°35' E 024°49'0 0.0
2017-Nov-11 23:59N 59°35' E 024°49'0 0.0
2017-Nov-11 23:29N 59°35' E 024°49'0 0.0
2017-Nov-11 22:59N 59°35' E 024°49'0 0.0
2017-Nov-11 22:29N 59°35' E 024°49'0 0.0
2017-Nov-11 21:59N 59°35' E 024°49'0 0.0
2017-Nov-11 21:29N 59°35' E 024°49'0 0.0
2017-Nov-11 20:59N 59°35' E 024°49'0 0.0
2017-Nov-11 20:29N 59°35' E 024°49'0 0.0
2017-Nov-11 19:59N 59°35' E 024°49'0 0.0
2017-Nov-11 19:29N 59°35' E 024°49'0 0.1
2017-Nov-11 18:59N 59°35' E 024°49'0 0.1
2017-Nov-11 18:29N 59°35' E 024°49'0 0.1
2017-Nov-11 17:59N 59°35' E 024°49'0 0.0
2017-Nov-11 17:29N 59°35' E 024°49'0 0.0
2017-Nov-11 16:59N 59°35' E 024°49'0 0.0
2017-Nov-11 16:29N 59°35' E 024°49'0 0.0
2017-Nov-11 15:59N 59°35' E 024°49'0 0.0
2017-Nov-11 15:29N 59°35' E 024°49'0 0.0
2017-Nov-11 14:59N 59°35' E 024°49'0 0.1
2017-Nov-11 14:29N 59°35' E 024°49'0 0.1
2017-Nov-11 13:59N 59°35' E 024°49'0 0.0
2017-Nov-11 13:29N 59°35' E 024°49'0 0.1
2017-Nov-11 12:59N 59°35' E 024°49'0 0.1
2017-Nov-11 12:29N 59°35' E 024°49'0 0.0
2017-Nov-11 11:59N 59°35' E 024°49'0 0.1
2017-Nov-11 11:29N 59°35' E 024°49'0 0.0
2017-Nov-11 10:59N 59°35' E 024°49'0 0.0
2017-Nov-11 10:29N 59°35' E 024°49'0 0.0
2017-Nov-11 09:59N 59°35' E 024°49'0 0.0
2017-Nov-11 09:29N 59°35' E 024°49'0 0.1
2017-Nov-11 08:59N 59°35' E 024°49'0 0.1
2017-Nov-11 08:29N 59°35' E 024°49'0 0.0
2017-Nov-11 07:59N 59°35' E 024°49'0 0.0
2017-Nov-11 07:29N 59°35' E 024°49'0 0.0
2017-Nov-11 06:59N 59°35' E 024°49'0 0.0
2017-Nov-11 06:29N 59°35' E 024°49'0 0.0
2017-Nov-11 05:59N 59°35' E 024°49'0 0.0
2017-Nov-11 05:30N 59°35' E 024°49'0 0.0
2017-Nov-11 04:59N 59°35' E 024°49'0 0.1
2017-Nov-11 04:29N 59°35' E 024°49'0 0.0
2017-Nov-11 03:59N 59°35' E 024°49'0 0.0
2017-Nov-11 03:29N 59°35' E 024°49'0 0.0
2017-Nov-11 02:59N 59°35' E 024°49'0 0.0
2017-Nov-11 02:29N 59°35' E 024°49'0 0.0
2017-Nov-11 01:59N 59°35' E 024°49'0 0.0
2017-Nov-11 01:29N 59°35' E 024°49'0 0.0
2017-Nov-11 00:59N 59°35' E 024°49'0 0.0
2017-Nov-11 00:29N 59°35' E 024°49'0 0.0
2017-Nov-10 23:59N 59°35' E 024°49'0 0.0
2017-Nov-10 23:29N 59°35' E 024°49'0 0.0
2017-Nov-10 22:59N 59°35' E 024°49'0 0.0
2017-Nov-10 22:29N 59°35' E 024°49'0 0.0
2017-Nov-10 21:59N 59°35' E 024°49'0 0.0
2017-Nov-10 21:29N 59°35' E 024°49'0 0.0
2017-Nov-10 21:00N 59°35' E 024°49'0 0.0
2017-Nov-10 20:29N 59°35' E 024°49'0 0.0
2017-Nov-10 19:59N 59°35' E 024°49'0 0.0
2017-Nov-10 19:30N 59°35' E 024°49'0 0.0
2017-Nov-10 18:59N 59°35' E 024°49'0 0.0
2017-Nov-10 18:29N 59°35' E 024°49'0 0.0
2017-Nov-10 17:59N 59°35' E 024°49'0 0.0
2017-Nov-10 17:29N 59°35' E 024°49'0 0.0
2017-Nov-10 16:59N 59°35' E 024°49'0 0.0
2017-Nov-10 16:29N 59°35' E 024°49'0 0.0
2017-Nov-10 15:59N 59°35' E 024°49'0 0.0
2017-Nov-10 15:29N 59°35' E 024°49'0 0.0
2017-Nov-10 14:59N 59°35' E 024°49'0 0.0
2017-Nov-10 14:29N 59°35' E 024°49'0 0.1
2017-Nov-10 13:59N 59°35' E 024°49'0 0.0
2017-Nov-10 13:29N 59°35' E 024°49'0 0.0
2017-Nov-10 12:59N 59°35' E 024°49'0 0.0
2017-Nov-10 12:29N 59°35' E 024°49'0 0.0
2017-Nov-10 11:59N 59°35' E 024°49'0 0.1
2017-Nov-10 11:29N 59°35' E 024°49'0 0.1
2017-Nov-10 10:59N 59°35' E 024°49'0 0.0
2017-Nov-10 10:29N 59°35' E 024°49'0 0.1
2017-Nov-10 09:59N 59°35' E 024°49'0 0.0
2017-Nov-10 09:29N 59°35' E 024°49'0 0.0
2017-Nov-10 08:59N 59°35' E 024°49'0 0.0
2017-Nov-10 08:29N 59°35' E 024°49'0 0.0
2017-Nov-10 07:59N 59°35' E 024°49'0 0.0
2017-Nov-10 07:29N 59°35' E 024°49'0 0.0
2017-Nov-10 06:59N 59°35' E 024°49'0 0.0
2017-Nov-10 06:29N 59°35' E 024°49'0 0.0
2017-Nov-10 05:59N 59°35' E 024°49'0 0.0
2017-Nov-10 05:30N 59°35' E 024°49'0 0.0
2017-Nov-10 04:59N 59°35' E 024°49'0 0.0
2017-Nov-10 04:29N 59°35' E 024°49'0 0.0
2017-Nov-10 03:59N 59°35' E 024°49'0 0.0
2017-Nov-10 03:29N 59°35' E 024°49'0 0.1
2017-Nov-10 02:59N 59°35' E 024°49'0 0.0
2017-Nov-10 02:29N 59°35' E 024°49'0 0.0
2017-Nov-10 01:59N 59°35' E 024°49'0 0.0
2017-Nov-10 01:29N 59°35' E 024°49'0 0.0
2017-Nov-10 00:59N 59°35' E 024°49'0 0.0
2017-Nov-10 00:29N 59°35' E 024°49'  

Dump ship's entire track history